Terminal Aerodrome Forecast
Issued by NWS Bismarck, ND

Home | Current Version | Previous Version | Text Only | Print | Product List | Glossary On
Versions: 1 2 3 4 5 6 7 8 9 10 11 12 13
168
FTUS43 KBIS 200532
TAFBIS
TAF
KBIS 200532Z 2006/2106 VRB03KT P6SM SCT080 OVC120
     FM201400 27005KT P6SM BKN150
     FM201700 28004KT P6SM SCT200=

USA.gov is the U.S. government's official web portal to all federal, state and local government web resources and services.